Time;durP1;ratioP1;P1;durP2;ratioP2;P2;SDS_P1;SDS_P2;PMS_P1;PMS_P2;Temp;Humidity;BMP_temperature;BMP_pressure;BME280_temperature;BME280_humidity;BME280_pressure;Samples;Min_cycle;Max_cycle;Signal;HPM_P1;HPM_P2
2021/05/15 00:00:05;;;;;;;;;;;10.50;99.90;;;;;;5015422;28;25074;-68
2021/05/15 00:02:32;;;;;;;762.20;690.00;;;10.40;99.90;;;;;;5017258;28;25095;-72
2021/05/15 00:04:59;;;;;;;876.65;802.85;;;10.30;99.90;;;;;;5018105;28;20421;-69
2021/05/15 00:07:26;;;;;;;876.40;802.60;;;10.30;99.90;;;;;;5017111;28;20495;-71
2021/05/15 00:09:53;;;;;;;;;;;10.10;99.90;;;;;;5018199;28;25103;-71
2021/05/15 00:12:20;;;;;;;;;;;10.10;99.90;;;;;;5018680;28;25073;-69
2021/05/15 00:14:47;;;;;;;;;;;10.10;99.90;;;;;;5018456;28;19925;-69
2021/05/15 00:17:16;;;;;;;;;;;10.10;99.90;;;;;;5017603;28;19930;-67
2021/05/15 00:19:44;;;;;;;;;;;10.10;99.90;;;;;;5017382;28;25148;-69
2021/05/15 00:22:11;;;;;;;;;;;10.10;99.90;;;;;;5018179;28;25153;-70
2021/05/15 00:24:37;;;;;;;;;;;10.20;99.90;;;;;;5018704;28;20324;-68
2021/05/15 00:27:06;;;;;;;;;;;10.20;99.90;;;;;;5018410;28;25065;-70
2021/05/15 00:29:33;;;;;;;;;;;10.30;99.90;;;;;;5018596;28;25051;-68
2021/05/15 00:32:00;;;;;;;;;;;10.30;99.90;;;;;;5018336;28;25138;-69
2021/05/15 00:34:26;;;;;;;;;;;10.30;99.90;;;;;;5019232;28;19929;-68
2021/05/15 00:36:54;;;;;;;;;;;10.40;99.90;;;;;;5020856;28;19925;-69
2021/05/15 00:39:26;;;;;;;;;;;10.40;99.90;;;;;;5004437;28;25104;-68
2021/05/15 00:41:53;;;;;;;;;;;10.40;99.90;;;;;;5021923;28;19957;-68
2021/05/15 00:44:31;;;;;;;;;;;10.40;99.90;;;;;;5003783;28;19921;-69
2021/05/15 00:46:57;;;;;;;;;;;10.40;99.90;;;;;;5019956;28;19921;-71
2021/05/15 00:49:25;;;;;;;;;;;10.40;99.90;;;;;;5023328;28;19922;-69
2021/05/15 00:51:53;;;;;;;;;;;10.40;99.90;;;;;;5023273;28;20434;-69
2021/05/15 00:54:19;;;;;;;;;;;10.30;99.90;;;;;;5023506;28;20376;-68
2021/05/15 00:56:46;;;;;;;;;;;10.20;99.90;;;;;;5024451;28;19975;-73
2021/05/15 00:59:15;;;;;;;;;;;10.20;99.90;;;;;;5023339;28;19995;-70
2021/05/15 01:01:42;;;;;;;;;;;10.20;99.90;;;;;;5022824;28;24084;-69
2021/05/15 01:04:09;;;;;;;;;;;10.10;99.90;;;;;;5022471;28;25073;-69
2021/05/15 01:06:37;;;;;;;;;;;10.10;99.90;;;;;;5024710;28;25091;-68
2021/05/15 01:09:04;;;;;;;;;;;10.20;99.90;;;;;;5010260;28;25066;-69
2021/05/15 01:11:30;;;;;;;;;;;10.20;99.90;;;;;;5029372;28;20321;-69
2021/05/15 01:14:01;;;;;;;;;;;10.20;99.90;;;;;;5028679;28;25068;-69
2021/05/15 01:16:27;;;;;;;;;;;10.20;99.90;;;;;;5029347;28;20002;-69
2021/05/15 01:18:55;;;;;;;;;;;10.20;99.90;;;;;;5030432;28;19926;-70
2021/05/15 01:21:22;;;;;;;;;;;10.10;99.90;;;;;;5028751;28;19989;-68
2021/05/15 01:23:49;;;;;;;;;;;10.00;99.90;;;;;;5031491;28;19988;-69
2021/05/15 01:26:16;;;;;;;;;;;9.90;99.90;;;;;;5032232;28;19926;-69
2021/05/15 01:28:43;;;;;;;;;;;9.80;99.90;;;;;;5031794;28;19937;-69
2021/05/15 01:31:11;;;;;;;;;;;9.70;99.90;;;;;;5031193;28;19926;-69
2021/05/15 01:33:38;;;;;;;;;;;9.70;99.90;;;;;;5024133;28;19931;-71
2021/05/15 01:36:04;;;;;;;;;;;9.60;99.90;;;;;;5017507;28;19925;-69
2021/05/15 01:38:32;;;;;;;;;;;9.60;99.90;;;;;;5017356;28;19925;-69
2021/05/15 01:41:02;;;;;;;;;;;9.50;99.90;;;;;;5017035;28;19932;-68
2021/05/15 01:43:29;;;;;;;;;;;9.50;99.90;;;;;;5016519;28;25069;-68
2021/05/15 01:45:55;;;;;;;;;;;9.40;99.90;;;;;;5015245;28;25071;-72
2021/05/15 01:48:22;;;;;;;;;;;9.40;99.90;;;;;;5019587;28;25052;-70
2021/05/15 01:50:58;;;;;;;;;;;9.30;99.90;;;;;;5015810;28;25102;-69
2021/05/15 01:53:26;;;;;;;;;;;9.30;99.90;;;;;;5014649;28;20414;-70
2021/05/15 01:55:54;;;;;;;;;;;9.20;99.90;;;;;;5014811;28;25059;-69
2021/05/15 01:58:20;;;;;;;;;;;9.20;99.90;;;;;;5015322;28;25068;-69
2021/05/15 02:00:47;;;;;;;;;;;9.20;99.90;;;;;;5014334;28;25110;-70
2021/05/15 02:03:41;;;;;;;;;;;9.20;99.90;;;;;;5015329;28;25063;-69
2021/05/15 02:06:08;;;;;;;;;;;9.10;99.90;;;;;;5013712;28;25140;-69
2021/05/15 02:08:35;;;;;;;;;;;9.10;99.90;;;;;;5014603;28;25052;-68
2021/05/15 02:11:07;;;;;;;;;;;9.10;99.90;;;;;;5014833;28;25058;-68
2021/05/15 02:13:35;;;;;;;;;;;9.10;99.90;;;;;;5014810;28;25075;-68
2021/05/15 02:16:02;;;;;;;;;;;9.00;99.90;;;;;;5013012;28;25099;-68
2021/05/15 02:18:29;;;;;;;;;;;9.10;99.90;;;;;;5014807;28;25160;-68
2021/05/15 02:20:56;;;;;;;;;;;9.10;99.90;;;;;;5015013;28;25052;-69
2021/05/15 02:23:23;;;;;;;;;;;9.10;99.90;;;;;;5014634;28;25140;-70
2021/05/15 02:25:49;;;;;;;;;;;9.20;99.90;;;;;;4981419;28;20293;-68
2021/05/15 02:28:17;;;;;;;;;;;9.20;99.90;;;;;;5013479;28;25108;-69
2021/05/15 02:30:44;;;;;;;;;;;9.20;99.90;;;;;;5012292;28;25118;-68
2021/05/15 02:33:11;;;;;;;;;;;9.30;99.90;;;;;;5015228;28;25057;-68
2021/05/15 02:35:38;;;;;;;;;;;9.40;99.90;;;;;;5015366;28;25071;-69
2021/05/15 02:38:06;;;;;;;;;;;9.50;99.90;;;;;;5014990;28;25108;-68
2021/05/15 02:40:33;;;;;;;;;;;9.50;99.90;;;;;;5015575;28;19930;-72
2021/05/15 02:43:00;;;;;;;;;;;9.50;99.90;;;;;;5015162;28;25063;-68
2021/05/15 02:45:27;;;;;;;;;;;9.70;99.90;;;;;;5014389;28;25141;-69
2021/05/15 02:47:54;;;;;;;;;;;9.70;99.90;;;;;;4997663;28;25065;-69
2021/05/15 02:50:21;;;;;;;;;;;9.60;99.90;;;;;;5015218;28;25169;-67
2021/05/15 02:52:51;;;;;;;;;;;9.60;99.90;;;;;;5015281;28;20251;-68
2021/05/15 02:55:19;;;;;;;;;;;9.60;99.90;;;;;;5014727;28;19928;-69
2021/05/15 02:57:47;;;;;;;;;;;9.60;99.90;;;;;;4997342;28;19971;-68
2021/05/15 03:00:15;;;;;;;;;;;9.60;99.90;;;;;;5015116;28;20340;-68
2021/05/15 03:02:42;;;;;;;;;;;9.60;99.90;;;;;;5015247;28;19925;-68
2021/05/15 03:05:10;;;;;;;;;;;9.60;99.90;;;;;;5014454;28;25054;-69
2021/05/15 03:07:37;;;;;;;;;;;9.60;99.90;;;;;;4997077;28;25085;-73
2021/05/15 03:10:04;;;;;;;;;;;9.60;99.90;;;;;;5014777;28;25077;-71
2021/05/15 03:12:30;;;;;;;;;;;9.60;99.90;;;;;;4996601;28;25081;-69
2021/05/15 03:14:57;;;;;;;;;;;9.60;99.90;;;;;;5014345;28;25061;-70
2021/05/15 03:17:24;;;;;;;;;;;9.60;99.90;;;;;;5013403;28;25108;-68
2021/05/15 03:20:00;;;;;;;;;;;9.60;99.90;;;;;;5014965;28;25098;-68
2021/05/15 03:22:27;;;;;;;;;;;9.60;99.90;;;;;;5013806;28;25103;-68
2021/05/15 03:24:53;;;;;;;;;;;9.50;99.90;;;;;;5014140;28;25057;-68
2021/05/15 03:27:20;;;;;;;;;;;9.50;99.90;;;;;;5014562;28;25070;-68
2021/05/15 03:29:49;;;;;;;;;;;9.50;99.90;;;;;;5014038;28;25059;-68
2021/05/15 03:32:16;;;;;;;;;;;9.50;99.90;;;;;;5014193;28;25080;-69
2021/05/15 03:34:43;;;;;;;;;;;9.40;99.90;;;;;;5010805;28;25074;-68
2021/05/15 03:37:10;;;;;;;;;;;9.40;99.90;;;;;;5018222;28;25096;-68
2021/05/15 03:39:37;;;;;;;;;;;9.30;99.90;;;;;;5018258;28;25069;-70
2021/05/15 03:42:04;;;;;;;;;;;9.30;99.90;;;;;;5018479;28;25059;-68
2021/05/15 03:44:31;;;;;;;;;;;9.40;99.90;;;;;;5018885;28;25077;-69
2021/05/15 03:46:57;;;;;;;;;;;9.50;99.90;;;;;;5000068;28;25083;-68
2021/05/15 03:49:23;;;;;;;;;;;9.40;99.90;;;;;;5017720;28;25054;-71
2021/05/15 03:51:50;;;;;;;;;;;9.50;99.90;;;;;;5017900;28;25175;-69
2021/05/15 03:54:18;;;;;;;;;;;9.40;99.90;;;;;;5017513;28;25093;-68
2021/05/15 03:56:44;;;;;;;;;;;9.40;99.90;;;;;;5017611;28;25145;-69
2021/05/15 03:59:37;;;;;;;;;;;9.30;99.90;;;;;;5017710;28;25143;-69
2021/05/15 04:02:04;;;;;;;;;;;9.20;99.90;;;;;;5015319;28;25150;-69
2021/05/15 04:04:31;;;;;;;;;;;9.20;99.90;;;;;;5017302;28;25162;-69
2021/05/15 04:06:57;;;;;;;;;;;9.30;99.90;;;;;;5016279;28;25084;-71
2021/05/15 04:09:26;;;;;;;;;;;9.30;99.90;;;;;;5015602;28;25072;-68
2021/05/15 04:11:55;;;;;;;;;;;9.30;99.90;;;;;;5017035;28;25100;-67
2021/05/15 04:14:29;;;;;;;;;;;9.30;99.90;;;;;;5016735;28;25065;-68
2021/05/15 04:17:14;;;;;;;;;;;9.30;99.90;;;;;;4998660;28;25106;-69
2021/05/15 04:19:43;;;;;;;;;;;9.30;99.90;;;;;;5017878;28;25092;-68
2021/05/15 04:22:09;;;;;;;;;;;9.20;99.90;;;;;;5017493;28;25109;-70
2021/05/15 04:24:38;;;;;;;;;;;9.20;99.90;;;;;;5000024;28;25083;-70
2021/05/15 04:27:06;;;;;;;;;;;9.20;99.90;;;;;;5015219;28;20422;-69
2021/05/15 04:29:36;;;;;;;;;;;9.20;99.90;;;;;;5014991;28;25134;-72
2021/05/15 04:32:03;;;;;;;;;;;9.20;99.90;;;;;;5016107;28;25084;-69
2021/05/15 04:34:30;;;;;;;;;;;9.10;99.90;;;;;;5017155;28;25087;-68
2021/05/15 04:36:57;;;;;;;;;;;9.20;99.90;;;;;;5016724;28;25060;-68
2021/05/15 04:39:50;;;;;;;;;;;9.30;99.90;;;;;;5016726;28;25112;-68
2021/05/15 04:42:16;;;;;;;;;;;9.30;99.90;;;;;;5016533;28;25126;-70
2021/05/15 04:44:43;;;;;;;;;;;9.30;99.90;;;;;;4999421;28;24746;-70
2021/05/15 04:47:10;;;;;;;;;;;9.30;99.90;;;;;;5014598;28;25146;-67
2021/05/15 04:49:36;;;;;;;;;;;9.30;99.90;;;;;;5016283;28;25164;-68
2021/05/15 04:52:04;;;;;;;;;;;9.40;99.90;;;;;;5016785;28;25075;-69
2021/05/15 04:54:33;;;;;;;;;;;9.40;99.90;;;;;;5016612;28;25125;-71
2021/05/15 04:57:01;;;;;;;;;;;9.50;99.90;;;;;;5016733;28;25090;-69
2021/05/15 04:59:32;;;;;;;;;;;9.50;99.90;;;;;;5016392;28;25067;-67
2021/05/15 05:02:00;;;;;;;;;;;9.50;99.90;;;;;;5015542;28;25128;-69
2021/05/15 05:04:26;;;;;;;;;;;9.50;99.90;;;;;;5016355;28;25106;-67
2021/05/15 05:06:52;;;;;;;;;;;9.50;99.90;;;;;;5017085;28;25073;-68
2021/05/15 05:09:19;;;;;;;;;;;9.50;99.90;;;;;;5016410;28;25065;-67
2021/05/15 05:11:48;;;;;;;;;;;9.50;99.90;;;;;;5016828;28;25070;-67
2021/05/15 05:14:16;;;;;;;;;;;9.50;99.90;;;;;;5016510;28;25054;-68
2021/05/15 05:16:43;;;;;;;;;;;9.50;99.90;;;;;;5015631;28;25061;-68
2021/05/15 05:19:12;;;;;;;;;;;9.50;99.90;;;;;;5016872;28;25055;-68
2021/05/15 05:21:39;;;;;;;;;;;9.50;99.90;;;;;;5016838;28;25117;-69
2021/05/15 05:24:06;;;;;;;;;;;9.60;99.90;;;;;;5015746;28;25080;-69
2021/05/15 05:26:36;;;;;;;;;;;9.60;99.90;;;;;;5016736;28;25068;-68
2021/05/15 05:29:07;;;;;;;;;;;9.60;99.90;;;;;;5017660;28;25071;-69
2021/05/15 05:31:35;;;;;;;;;;;9.70;99.90;;;;;;5015074;28;25095;-72
2021/05/15 05:34:02;;;;;;;;;;;9.80;99.90;;;;;;5012826;28;25113;-68
2021/05/15 05:36:28;;;;;;;;;;;9.80;99.90;;;;;;5013611;28;25067;-67
2021/05/15 05:38:55;;;;;;;;;;;9.80;99.90;;;;;;5015720;28;25116;-69
2021/05/15 05:41:24;;;;;;;;;;;9.90;99.90;;;;;;5016986;28;25148;-69
2021/05/15 05:43:51;;;;;;;;;;;9.80;99.90;;;;;;5017063;28;25065;-69
2021/05/15 05:46:17;;;;;;;;;;;9.80;99.90;;;;;;5016726;28;25113;-70
2021/05/15 05:48:44;;;;;;;;;;;9.80;99.90;;;;;;5019108;28;25125;-68
2021/05/15 05:51:11;;;;;;;;;;;9.90;99.90;;;;;;5017936;28;25076;-68
2021/05/15 05:56:29;;;;;;;;;;;10.20;99.90;;;;;;5020382;28;25070;-68
2021/05/15 05:58:56;;;;;;;;;;;10.30;99.90;;;;;;5020887;28;25073;-68
2021/05/15 06:01:22;;;;;;;;;;;10.40;99.90;;;;;;5023032;28;25129;-70
2021/05/15 06:03:50;;;;;;;;;;;10.90;99.90;;;;;;5022957;28;25070;-70
2021/05/15 06:06:16;;;;;;;;;;;11.20;99.90;;;;;;5016940;28;25076;-72
2021/05/15 06:08:43;;;;;;;;;;;11.60;99.90;;;;;;5015562;28;25055;-71
2021/05/15 06:11:14;;;;;;;;;;;11.90;99.90;;;;;;4998601;28;25065;-76
2021/05/15 06:13:42;;;;;;;;;;;12.30;99.90;;;;;;4998910;28;25109;-74
2021/05/15 06:16:08;;;;;;;;;;;12.10;99.90;;;;;;5015234;28;25069;-74
2021/05/15 06:18:35;;;;;;;;;;;12.50;99.90;;;;;;5016216;28;25123;-74
2021/05/15 06:21:02;;;;;;;;;;;12.90;99.90;;;;;;5016250;28;25075;-77
2021/05/15 06:23:29;;;;;;;;;;;13.00;99.90;;;;;;5000650;28;25076;-77
2021/05/15 06:25:55;;;;;;;;;;;13.60;99.90;;;;;;5019472;28;25059;-76
2021/05/15 06:28:22;;;;;;;;;;;14.00;99.90;;;;;;5018341;28;25110;-74
2021/05/15 06:30:48;;;;;;;;;;;14.50;99.90;;;;;;5018996;28;25085;-75
2021/05/15 06:33:15;;;;;;;;;;;14.30;99.90;;;;;;5019642;28;25116;-74
2021/05/15 06:35:42;;;;;;;;;;;14.10;99.90;;;;;;5001306;28;25071;-73
2021/05/15 06:38:10;;;;;;;;;;;13.90;99.90;;;;;;5020485;28;25083;-75
2021/05/15 06:40:38;;;;;;;;;;;13.60;99.90;;;;;;4998050;28;25109;-73
2021/05/15 06:43:04;;;;;;;;;;;14.50;99.90;;;;;;4999174;28;25057;-74
2021/05/15 06:45:31;;;;;;;;;;;15.80;99.90;;;;;;4995559;28;25073;-73
2021/05/15 06:47:57;;;;;;;;;;;14.90;99.90;;;;;;4998749;28;25113;-73
2021/05/15 06:50:24;;;;;;;;;;;15.10;99.90;;;;;;5013302;28;25057;-72
2021/05/15 06:52:50;;;;;;;;;;;15.10;99.90;;;;;;4998368;28;25144;-74
2021/05/15 06:55:18;;;;;;;;;;;15.10;99.90;;;;;;4999283;28;25113;-74
2021/05/15 06:57:45;;;;;;;;;;;15.30;99.90;;;;;;4997909;28;25085;-74
2021/05/15 07:00:13;;;;;;;;;;;15.70;99.90;;;;;;4996289;28;25054;-74
2021/05/15 07:02:40;;;;;;;;;;;15.10;99.90;;;;;;4994359;28;25073;-74
2021/05/15 07:05:07;;;;;;;;;;;15.10;99.90;;;;;;4994325;28;25136;-74
2021/05/15 07:07:34;;;;;;;;;;;14.90;99.90;;;;;;4995202;28;25050;-74
2021/05/15 07:10:00;;;;;;;;;;;16.30;99.90;;;;;;5014858;28;25095;-73
2021/05/15 07:12:28;;;;;;;;;;;17.10;98.70;;;;;;4998808;28;25110;-74
2021/05/15 07:14:55;;;;;;;;;;;16.80;99.60;;;;;;5014082;28;25083;-74
2021/05/15 07:17:25;;;;;;;;;;;16.90;97.00;;;;;;4998971;28;19988;-73
2021/05/15 07:19:52;;;;;;;;;;;16.90;96.40;;;;;;4998350;28;25073;-73
2021/05/15 07:22:19;;;;;;;;;;;15.30;97.70;;;;;;5015942;28;25055;-73
2021/05/15 07:24:45;;;;;;;;;;;14.70;99.50;;;;;;4997236;28;25075;-73
2021/05/15 07:27:12;;;;;;;;;;;15.60;99.30;;;;;;4997805;28;25079;-73
2021/05/15 07:29:40;;;;;;;;;;;16.00;97.70;;;;;;4998316;28;25131;-73
2021/05/15 07:32:07;;;;;;;;;;;16.10;97.80;;;;;;4996277;28;25078;-75
2021/05/15 07:34:33;;;;;;;;;;;16.00;97.30;;;;;;4998567;28;25118;-73
2021/05/15 07:39:51;;;;;;;;;;;15.80;96.80;;;;;;4997407;28;25093;-73
2021/05/15 07:42:17;;;;;;;;;;;15.30;97.50;;;;;;4997943;28;25068;-72
2021/05/15 07:44:49;;;;;;;;;;;16.40;97.20;;;;;;4997014;28;25072;-74
2021/05/15 07:47:15;;;;;;;;;;;18.50;93.90;;;;;;4996173;28;25135;-74
2021/05/15 07:49:42;;;;;;;;;;;17.90;90.20;;;;;;4998296;28;25118;-73
2021/05/15 07:52:09;;;;;;;;;;;19.10;91.50;;;;;;4982057;28;25058;-75
2021/05/15 07:54:35;;;;;;;;;;;22.50;80.90;;;;;;4965036;28;25100;-72
2021/05/15 07:57:02;;;;;;;;;;;26.30;63.20;;;;;;4997262;28;25110;-72
2021/05/15 07:59:28;;;;;;;;;;;27.50;51.20;;;;;;4998214;28;25100;-73
2021/05/15 08:01:56;;;;;;;;;;;25.70;50.00;;;;;;4999758;28;20249;-74
2021/05/15 08:04:24;;;;;;;;;;;25.20;54.00;;;;;;5000139;28;20277;-74
2021/05/15 08:06:50;;;;;;;;;;;25.00;52.00;;;;;;4999794;28;20179;-76
2021/05/15 08:09:17;;;;;;;;;;;22.70;56.70;;;;;;4998100;28;20028;-72
2021/05/15 08:11:44;;;;;;;;;;;20.50;63.30;;;;;;4981837;28;20043;-72
2021/05/15 08:14:11;;;;;;;;;;;18.70;68.20;;;;;;4997181;28;19921;-73
2021/05/15 08:16:37;;;;;;;;;;;17.70;75.00;;;;;;4980913;28;19972;-78
2021/05/15 08:19:04;;;;;;;;;;;18.20;76.00;;;;;;4997215;28;19932;-74
2021/05/15 08:21:31;;;;;;;;;;;17.40;76.50;;;;;;4999293;28;19922;-74
2021/05/15 08:23:58;;;;;;;;;;;17.60;76.80;;;;;;5003093;28;19922;-74
2021/05/15 08:26:27;;;;;;;;;;;20.90;72.50;;;;;;4969508;28;19922;-74
2021/05/15 08:28:55;;;;;;;;;;;21.30;68.10;;;;;;5003471;28;20410;-73
2021/05/15 08:31:22;;;;;;;;;;;22.60;64.90;;;;;;5001397;28;19922;-73
2021/05/15 08:33:49;;;;;;;;;;;21.60;65.10;;;;;;5002860;28;19922;-75
2021/05/15 08:36:16;;;;;;;;;;;19.90;67.70;;;;;;4985927;28;19953;-76
2021/05/15 08:38:43;;;;;;;;;;;18.70;71.30;;;;;;5004070;28;19922;-74
2021/05/15 08:41:10;;;;;;;;;;;16.10;78.00;;;;;;5013366;28;19975;-73
2021/05/15 08:43:40;;;;;;;;;;;15.60;87.20;;;;;;5003555;28;20024;-77
2021/05/15 08:46:10;;;;;;;;;;;16.40;89.00;;;;;;5004091;28;20393;-73
2021/05/15 08:48:37;;;;;;;;;;;19.10;76.60;;;;;;5021218;28;19960;-75
2021/05/15 08:51:04;;;;;;;;;;;20.60;74.30;;;;;;5022511;28;19925;-74
2021/05/15 08:53:31;;;;;;;;;;;18.70;73.40;;;;;;5006033;28;20369;-74
2021/05/15 08:55:58;;;;;;;;;;;16.80;81.10;;;;;;5022582;28;20416;-74
2021/05/15 08:58:25;;;;;;;;;;;16.90;84.20;;;;;;5004770;28;20028;-73
2021/05/15 09:00:53;;;;;;;;;;;16.00;88.90;;;;;;5020209;28;19956;-74
2021/05/15 09:03:20;;;;;;;;;;;16.00;90.20;;;;;;4987486;28;19922;-73
2021/05/15 09:05:50;;;;;;;;;;;15.80;90.70;;;;;;5020735;28;19929;-74
2021/05/15 09:08:18;;;;;;;;;;;15.20;92.00;;;;;;5003784;28;19921;-74
2021/05/15 09:10:48;;;;;;;;;;;15.40;92.00;;;;;;5020803;28;19945;-74
2021/05/15 09:13:18;;;;;;;;;;;15.20;92.50;;;;;;5003570;28;19922;-73
2021/05/15 09:15:47;;;;;;;;;;;15.00;93.20;;;;;;5004400;28;19956;-74
2021/05/15 09:18:16;;;;;;;;;;;15.30;92.70;;;;;;5022153;28;19926;-73
2021/05/15 09:20:44;;;;;;;;;;;15.60;92.30;;;;;;5022643;28;19929;-75
2021/05/15 09:23:19;;;;;;;;;;;17.70;89.10;;;;;;5019576;28;19921;-74
2021/05/15 09:26:13;;;;;;;;;;;18.50;82.70;;;;;;5003147;28;19921;-73
2021/05/15 09:28:41;;;;;;;;;;;17.10;85.90;;;;;;5021567;28;19925;-73
2021/05/15 09:31:22;;;;;;;;;;;16.70;88.90;;;;;;5019256;28;19928;-72
2021/05/15 09:33:51;;;;;;;;;;;16.90;88.90;;;;;;5017854;28;19928;-73
2021/05/15 09:36:20;;;;;;;;;;;19.10;82.90;;;;;;5019137;28;19925;-72
2021/05/15 09:39:27;;;;;;;;;;;20.40;77.20;;;;;;5020409;28;19921;-73
2021/05/15 09:41:58;;;;;;;;;;;18.90;75.40;;;;;;5019078;28;19921;-74
2021/05/15 09:44:27;;;;;;;;;;;17.90;79.00;;;;;;5021166;28;19928;-73
2021/05/15 09:46:55;;;;;;;;;;;17.20;82.00;;;;;;5001950;28;19925;-74
2021/05/15 09:49:24;;;;;;;;;;;17.30;83.20;;;;;;5003303;28;19983;-73
2021/05/15 09:51:53;;;;;;;;;;;17.40;83.40;;;;;;5020981;28;19980;-73
2021/05/15 09:54:22;;;;;;;;;;;17.30;83.40;;;;;;5019982;28;20037;-74
2021/05/15 09:56:58;;;;;;;;;;;17.00;83.90;;;;;;5003187;28;20015;-73
2021/05/15 09:59:28;;;;;;;;;;;17.00;84.20;;;;;;5002122;28;20029;-72
2021/05/15 10:01:57;;;;;;;;;;;17.90;81.90;;;;;;5019465;28;19921;-74
2021/05/15 10:04:26;;;;;;;;;;;18.30;79.10;;;;;;5002475;28;19921;-72
2021/05/15 10:06:54;;;;;;;;;;;18.10;79.80;;;;;;5018744;28;19980;-73
2021/05/15 10:09:26;;;;;;;;;;;17.50;80.30;;;;;;5003024;28;20015;-75
2021/05/15 10:11:55;;;;;;;;;;;16.50;83.20;;;;;;5019674;28;20095;-72
2021/05/15 10:14:23;;;;;;;;;;;17.00;84.70;;;;;;5002214;28;20259;-72
2021/05/15 10:16:51;;;;;;;;;;;17.40;82.70;;;;;;5001038;28;20356;-73
2021/05/15 10:19:20;;;;;;;;;;;16.60;83.20;;;;;;5002643;28;20361;-73
2021/05/15 10:21:48;;;;;;;;;;;17.10;85.20;;;;;;5020002;28;19922;-73
2021/05/15 10:24:17;;;;;;;;;;;17.40;81.50;;;;;;5003276;28;19922;-72
2021/05/15 10:26:46;;;;;;;;;;;17.50;81.90;;;;;;5020578;28;19922;-72
2021/05/15 10:29:14;;;;;;;;;;;18.20;80.20;;;;;;5020990;28;19925;-73
2021/05/15 10:31:44;;;;;;;;;;;19.10;74.70;;;;;;4998987;28;19926;-72
2021/05/15 10:34:17;;;;;;;;;;;19.10;75.50;;;;;;5016143;28;19921;-72
2021/05/15 10:36:46;;;;;;;;;;;19.20;75.50;;;;;;5012808;28;19944;-75
2021/05/15 10:39:26;;;;;;;;;;;18.30;74.70;;;;;;5021040;28;24144;-75
2021/05/15 10:41:55;;;;;;;;;;;17.50;73.90;;;;;;5016334;28;19926;-73
2021/05/15 10:44:23;;;;;;;;;;;18.00;75.00;;;;;;5000808;28;20029;-73
2021/05/15 10:46:53;;;;;;;;;;;18.40;74.50;;;;;;5019352;28;19949;-72
2021/05/15 10:49:23;;;;;;;;;;;18.00;72.90;;;;;;5019528;28;19921;-73
2021/05/15 10:51:54;;;;;;;;;;;17.90;74.80;;;;;;5003291;28;19927;-74
2021/05/15 10:54:31;;;;;;;;;;;17.50;76.60;;;;;;5019606;28;19927;-74
2021/05/15 10:57:03;;;;;;;;;;;17.00;76.40;;;;;;5001505;28;19952;-73
2021/05/15 10:59:31;;;;;;;;;;;16.90;77.40;;;;;;5018932;28;19925;-73
2021/05/15 11:02:01;;;;;;;;;;;16.80;78.60;;;;;;5000392;28;19927;-74
2021/05/15 11:04:31;;;;;;;;;;;16.90;79.10;;;;;;5001813;28;20032;-74
2021/05/15 11:07:00;;;;;;;;;;;16.80;78.40;;;;;;5020195;28;20059;-74
2021/05/15 11:09:30;;;;;;;;;;;16.70;79.40;;;;;;5021332;28;19996;-73
2021/05/15 11:12:20;;;;;;;;;;;16.60;79.60;;;;;;5019091;28;19925;-73
2021/05/15 11:14:49;;;;;;;;;;;16.80;80.10;;;;;;5014657;28;19921;-73
2021/05/15 11:17:24;;;;;;;;;;;17.50;78.70;;;;;;5000091;28;19925;-73
2021/05/15 11:19:53;;;;;;;;;;;18.00;78.20;;;;;;4999747;28;20332;-75
2021/05/15 11:22:34;;;;;;;;;;;18.80;76.50;;;;;;5018106;28;25077;-74
2021/05/15 11:25:03;;;;;;;;;;;18.70;74.60;;;;;;5020526;28;20501;-74
2021/05/15 11:27:31;;;;;;;;;;;19.30;75.30;;;;;;5019401;28;20859;-73
2021/05/15 11:30:08;;;;;;;;;;;18.90;74.10;;;;;;5019280;28;19922;-73
2021/05/15 11:32:37;;;;;;;;;;;18.00;75.90;;;;;;5019003;28;19972;-74
2021/05/15 11:35:06;;;;;;;;;;;18.10;78.20;;;;;;5001786;28;19931;-74
2021/05/15 11:37:35;;;;;;;;;;;17.60;76.00;;;;;;5001469;28;20278;-74
2021/05/15 11:40:11;;;;;;;;;;;17.70;75.40;;;;;;5018502;28;19988;-75
2021/05/15 11:42:39;;;;;;;;;;;17.60;74.00;;;;;;5001376;28;19925;-74
2021/05/15 11:45:08;;;;;;;;;;;17.70;74.70;;;;;;5017745;28;20347;-74
2021/05/15 11:47:36;;;;;;;;;;;17.50;76.00;;;;;;5000671;28;20417;-74
2021/05/15 11:50:06;;;;;;;;;;;17.20;76.40;;;;;;5018605;28;20270;-74
2021/05/15 11:52:35;;;;;;;;;;;17.00;79.60;;;;;;5018594;28;20385;-75
2021/05/15 11:55:04;;;;;;;;;;;17.20;82.10;;;;;;5001071;28;20332;-74
2021/05/15 11:57:31;;;;;;;;;;;17.30;80.80;;;;;;5002560;28;19928;-76
2021/05/15 12:00:10;;;;;;;;;;;17.10;80.20;;;;;;5022314;28;20524;-75
2021/05/15 12:02:46;;;;;;;;;;;17.10;78.30;;;;;;5022145;28;19921;-74
2021/05/15 12:05:15;;;;;;;;;;;16.80;78.50;;;;;;5020853;28;19932;-73
2021/05/15 12:08:11;;;;;;;;;;;17.30;77.80;;;;;;5007111;28;19921;-74
2021/05/15 12:10:39;;;;;;;;;;;17.40;75.10;;;;;;5005120;28;19921;-74
2021/05/15 12:13:08;;;;;;;;;;;17.80;75.30;;;;;;5022453;28;19988;-74
2021/05/15 12:15:37;;;;;;;;;;;18.10;74.70;;;;;;5020939;28;20367;-73
2021/05/15 12:18:06;;;;;;;;;;;18.20;73.80;;;;;;5004793;28;20337;-74
2021/05/15 12:20:38;;;;;;;;;;;18.20;72.80;;;;;;5021749;28;25110;-74
2021/05/15 12:23:08;;;;;;;;;;;18.10;74.00;;;;;;5021127;28;19922;-72
2021/05/15 12:25:36;;;;;;;;;;;18.30;73.60;;;;;;5021861;28;19932;-73
2021/05/15 12:28:04;;;;;;;;;;;17.70;73.80;;;;;;5022450;28;20008;-74
2021/05/15 12:30:36;;;;;;;;;;;17.40;75.70;;;;;;5004231;28;19921;-73
2021/05/15 12:33:07;;;;;;;;;;;17.30;76.10;;;;;;5003986;28;20125;-74
2021/05/15 12:35:36;;;;;;;;;;;17.40;75.70;;;;;;5021543;28;19983;-74
2021/05/15 12:38:08;;;;;;;;;;;17.50;74.90;;;;;;5005503;28;19922;-73
2021/05/15 12:40:35;;;;;;;;;;;17.30;76.20;;;;;;5021497;28;19931;-73
2021/05/15 12:43:10;;;;;;;;;;;17.60;75.80;;;;;;5021341;28;19922;-74
2021/05/15 12:45:39;;;;;;;;;;;17.40;74.20;;;;;;4987054;28;19930;-73
2021/05/15 12:48:20;;;;;;;;;;;17.50;75.20;;;;;;4988375;28;19922;-74
2021/05/15 12:50:48;;;;;;;;;;;17.60;73.80;;;;;;5021123;28;19943;-74
2021/05/15 12:53:16;;;;;;;;;;;17.40;74.50;;;;;;5021995;28;19921;-73
2021/05/15 12:55:47;;;;;;;;;;;17.30;76.10;;;;;;5003960;28;19928;-72
2021/05/15 12:58:18;;;;;;;;;;;17.50;76.80;;;;;;5020408;28;19933;-75
2021/05/15 13:03:50;;;;;;;;;;;17.30;78.00;;;;;;5002236;28;20334;-76
2021/05/15 13:06:19;;;;;;;;;;;17.00;83.50;;;;;;5020178;28;19951;-73
2021/05/15 13:08:54;;;;;;;;;;;16.80;84.10;;;;;;5021747;28;19929;-74
2021/05/15 13:11:24;;;;;;;;;;;15.70;91.60;;;;;;5021330;28;24065;-74
2021/05/15 13:13:52;;;;;;;;;;;14.60;99.50;;;;;;5003648;28;19937;-73
2021/05/15 13:16:20;;;;;;;;;;;14.00;99.90;;;;;;5002786;28;19925;-74
2021/05/15 13:18:59;;;;;;;;;;;13.80;99.90;;;;;;5020717;28;19928;-74
2021/05/15 13:21:27;;;;;;;;;;;13.90;99.90;;;;;;5019467;28;19961;-74
2021/05/15 13:23:54;;;;;;;;;;;13.70;99.90;;;;;;5018346;28;20004;-73
2021/05/15 13:26:23;;;;;;;;;;;13.50;99.90;;;;;;5018089;28;19945;-76
2021/05/15 13:28:51;;;;;;;;;;;13.40;99.90;;;;;;5002649;28;19921;-74
2021/05/15 13:31:19;;;;;;;;;;;13.40;99.90;;;;;;5018959;28;20316;-73
2021/05/15 13:33:47;;;;;;;;;;;13.30;99.90;;;;;;5021177;28;19928;-73
2021/05/15 13:36:16;;;;;;;;;;;13.10;99.90;;;;;;4986919;28;20362;-74
2021/05/15 13:38:44;;;;;;;;;;;13.30;99.90;;;;;;5018753;28;19928;-73
2021/05/15 13:41:12;;;;;;;;;;;13.50;99.90;;;;;;5020649;28;19931;-73
2021/05/15 13:44:05;;;;;;;;;;;13.80;99.90;;;;;;5019804;28;20326;-73
2021/05/15 13:46:33;;;;;;;;;;;14.30;99.90;;;;;;5002397;28;19928;-74
2021/05/15 13:49:02;;;;;;;;;;;14.50;99.90;;;;;;5019205;28;19952;-73
2021/05/15 13:51:31;;;;;;;;;;;14.60;99.90;;;;;;5020282;28;20074;-73
2021/05/15 13:53:59;;;;;;;;;;;14.30;99.90;;;;;;5002502;28;19922;-73
2021/05/15 13:56:29;;;;;;;;;;;14.00;99.90;;;;;;5021407;28;19967;-73
2021/05/15 13:58:57;;;;;;;;;;;13.70;99.90;;;;;;5020713;28;20276;-74
2021/05/15 14:01:25;;;;;;;;;;;13.60;99.90;;;;;;5018373;28;19984;-74
2021/05/15 14:03:52;;;;;;;;;;;13.40;99.90;;;;;;5003060;28;19922;-73
2021/05/15 14:06:21;;;;;;;;;;;13.30;99.90;;;;;;5019780;28;19975;-72
2021/05/15 14:08:50;;;;;;;;;;;13.50;99.90;;;;;;5018486;28;19959;-73
2021/05/15 14:11:42;;;;;;;;;;;13.60;99.90;;;;;;5018424;28;19921;-73
2021/05/15 14:14:10;;;;;;;;;;;13.70;99.90;;;;;;5018574;28;19924;-73
2021/05/15 14:16:38;;;;;;;;;;;13.90;99.90;;;;;;4985980;28;19956;-74
2021/05/15 14:19:05;;;;;;;;;;;14.20;99.90;;;;;;5018634;28;19992;-73
2021/05/15 14:21:33;;;;;;;;;;;14.00;99.90;;;;;;5001839;28;19922;-73
2021/05/15 14:24:02;;;;;;;;;;;14.10;99.90;;;;;;5002179;28;20012;-76
2021/05/15 14:26:53;;;;;;;;;;;14.30;99.90;;;;;;5002253;28;19928;-73
2021/05/15 14:29:22;;;;;;;;;;;14.60;99.90;;;;;;4986105;28;19976;-73
2021/05/15 14:31:50;;;;;;;;;;;14.60;99.90;;;;;;5017561;28;20416;-73
2021/05/15 14:34:18;;;;;;;;;;;14.70;99.90;;;;;;5017833;28;25083;-73
2021/05/15 14:36:46;;;;;;;;;;;14.90;99.90;;;;;;5019972;28;20024;-73